Time;durP1;ratioP1;P1;durP2;ratioP2;P2;SDS_P1;SDS_P2;PMS_P1;PMS_P2;Temp;Humidity;BMP_temperature;BMP_pressure;BME280_temperature;BME280_humidity;BME280_pressure;Samples;Min_cycle;Max_cycle;Signal;HPM_P1;HPM_P2
2021/05/31 00:01:54;;;;;;;5.25;2.00;;;10.40;65.50;;;;;;5055279;28;20043;-66
2021/05/31 00:04:21;;;;;;;4.90;2.17;;;10.40;64.80;;;;;;5037569;28;20030;-67
2021/05/31 00:06:50;;;;;;;2.72;1.48;;;10.30;65.40;;;;;;5037409;28;20093;-66
2021/05/31 00:09:16;;;;;;;3.07;2.10;;;10.30;64.90;;;;;;5053768;28;20033;-66
2021/05/31 00:11:42;;;;;;;1.98;1.50;;;10.30;65.20;;;;;;5053011;28;20500;-66
2021/05/31 00:14:07;;;;;;;6.07;2.30;;;10.30;65.70;;;;;;5039709;28;20036;-66
2021/05/31 00:16:33;;;;;;;2.38;1.90;;;10.20;66.10;;;;;;5039161;28;20101;-66
2021/05/31 00:18:59;;;;;;;3.75;2.20;;;10.20;65.90;;;;;;5035584;28;20116;-67
2021/05/31 00:21:25;;;;;;;3.03;1.55;;;10.20;66.20;;;;;;5033416;28;20029;-66
2021/05/31 00:23:51;;;;;;;2.90;2.13;;;10.20;66.40;;;;;;5046544;28;20142;-70
2021/05/31 00:26:18;;;;;;;4.63;1.98;;;10.10;66.30;;;;;;5044877;28;20033;-66
2021/05/31 00:28:44;;;;;;;4.25;2.40;;;10.10;66.60;;;;;;5034109;28;20572;-66
2021/05/31 00:31:11;;;;;;;2.60;2.10;;;10.10;66.50;;;;;;5046924;28;20612;-66
2021/05/31 00:33:38;;;;;;;3.35;1.73;;;10.10;66.30;;;;;;5050652;28;20058;-66
2021/05/31 00:36:04;;;;;;;3.72;1.70;;;10.00;66.20;;;;;;5032627;28;20071;-67
2021/05/31 00:38:30;;;;;;;3.42;1.63;;;10.00;66.00;;;;;;5052122;28;20036;-66
2021/05/31 00:40:56;;;;;;;5.82;2.25;;;10.00;65.80;;;;;;5052008;28;20136;-66
2021/05/31 00:43:22;;;;;;;2.45;1.77;;;10.00;65.60;;;;;;5052878;28;20082;-67
2021/05/31 00:45:48;;;;;;;2.95;1.80;;;10.00;66.00;;;;;;5052150;28;20029;-67
2021/05/31 00:48:15;;;;;;;4.55;1.70;;;10.10;64.90;;;;;;5052189;28;20056;-67
2021/05/31 00:50:43;;;;;;;4.40;1.85;;;10.10;65.50;;;;;;5052221;28;20100;-66
2021/05/31 00:53:09;;;;;;;3.63;1.98;;;10.20;66.00;;;;;;5039440;28;20033;-67
2021/05/31 00:55:35;;;;;;;3.08;1.70;;;10.20;65.60;;;;;;5049948;28;20051;-67
2021/05/31 00:58:02;;;;;;;4.03;1.77;;;10.20;65.40;;;;;;5047628;28;20502;-67
2021/05/31 01:00:27;;;;;;;3.45;1.88;;;10.20;65.60;;;;;;5033419;28;20375;-67
2021/05/31 01:02:53;;;;;;;3.03;1.38;;;10.20;65.50;;;;;;5032987;28;20039;-69
2021/05/31 01:05:21;;;;;;;2.63;1.80;;;10.10;65.30;;;;;;5035073;28;20057;-67
2021/05/31 01:07:52;;;;;;;2.45;1.50;;;10.20;64.70;;;;;;5043757;28;20029;-67
2021/05/31 01:10:18;;;;;;;2.88;1.70;;;10.30;64.10;;;;;;5051546;28;20520;-66
2021/05/31 01:13:01;;;;;;;2.72;1.50;;;10.30;63.90;;;;;;5050717;28;20026;-67
2021/05/31 01:15:38;;;;;;;3.28;1.80;;;10.20;64.10;;;;;;5041153;28;20029;-67
2021/05/31 01:18:13;;;;;;;3.40;1.60;;;10.20;65.50;;;;;;5039216;28;20032;-67
2021/05/31 01:20:51;;;;;;;2.85;1.65;;;10.20;66.40;;;;;;5044622;28;20029;-68
2021/05/31 01:23:18;;;;;;;3.40;1.60;;;10.10;67.10;;;;;;5051410;28;20111;-67
2021/05/31 01:26:08;;;;;;;3.03;1.92;;;10.00;67.60;;;;;;5040539;28;20025;-67
2021/05/31 01:28:46;;;;;;;2.58;1.60;;;10.00;67.70;;;;;;5033697;28;20048;-66
2021/05/31 01:31:17;;;;;;;3.20;1.40;;;9.80;68.00;;;;;;5031806;28;20036;-67
2021/05/31 01:33:46;;;;;;;2.08;1.63;;;9.70;68.20;;;;;;5039268;28;20032;-67
2021/05/31 01:36:12;;;;;;;3.00;1.80;;;9.70;68.60;;;;;;5049125;28;20458;-67
2021/05/31 01:38:39;;;;;;;2.28;1.80;;;9.60;68.80;;;;;;5043433;28;20078;-67
2021/05/31 01:41:06;;;;;;;3.10;1.65;;;9.50;69.00;;;;;;5050539;28;20108;-66
2021/05/31 01:43:32;;;;;;;2.20;1.52;;;9.40;69.40;;;;;;5046464;28;20112;-66
2021/05/31 01:46:00;;;;;;;4.38;1.85;;;9.40;69.60;;;;;;5030801;28;20029;-67
2021/05/31 01:48:26;;;;;;;3.20;1.73;;;9.30;69.70;;;;;;5033695;28;20053;-66
2021/05/31 01:50:52;;;;;;;4.88;2.20;;;9.30;70.00;;;;;;5031425;28;20057;-70
2021/05/31 01:53:19;;;;;;;4.43;1.60;;;9.20;70.50;;;;;;5032670;28;20036;-66
2021/05/31 01:55:46;;;;;;;2.50;1.52;;;9.10;70.50;;;;;;5033533;28;20108;-66
2021/05/31 01:58:13;;;;;;;3.10;2.08;;;9.10;70.60;;;;;;5050214;28;20071;-66
2021/05/31 02:00:38;;;;;;;1.98;1.55;;;9.10;70.90;;;;;;5051007;28;20033;-66
2021/05/31 02:03:04;;;;;;;1.88;1.60;;;9.00;71.10;;;;;;5052235;28;20444;-66
2021/05/31 02:05:30;;;;;;;3.97;1.92;;;9.00;71.30;;;;;;5043399;28;20040;-66
2021/05/31 02:07:56;;;;;;;7.75;1.90;;;9.00;71.90;;;;;;5036759;28;20459;-67
2021/05/31 02:10:23;;;;;;;2.95;2.30;;;8.90;72.40;;;;;;5031874;28;20049;-66
2021/05/31 02:12:52;;;;;;;3.85;1.80;;;8.90;71.90;;;;;;5038013;28;20078;-66
2021/05/31 02:15:41;;;;;;;4.97;2.03;;;8.90;72.10;;;;;;5047769;28;20044;-66
2021/05/31 02:18:11;;;;;;;2.63;1.85;;;8.80;72.40;;;;;;5019656;28;20076;-66
2021/05/31 02:20:38;;;;;;;2.38;1.73;;;8.80;72.80;;;;;;5031668;28;20356;-66
2021/05/31 02:23:07;;;;;;;4.68;2.00;;;8.80;72.60;;;;;;5039672;28;20025;-67
2021/05/31 02:25:34;;;;;;;2.50;2.00;;;8.80;72.70;;;;;;5038006;28;20037;-68
2021/05/31 02:28:00;;;;;;;3.47;1.67;;;8.70;73.20;;;;;;5013003;28;20044;-66
2021/05/31 02:30:26;;;;;;;3.17;1.73;;;8.70;73.40;;;;;;5040964;28;20132;-66
2021/05/31 02:32:58;;;;;;;3.60;2.25;;;8.70;73.90;;;;;;5049847;28;20035;-70
2021/05/31 02:35:26;;;;;;;3.85;2.00;;;8.60;74.00;;;;;;5042387;28;20029;-67
2021/05/31 02:37:52;;;;;;;5.00;2.17;;;8.60;74.20;;;;;;5030066;28;20043;-70
2021/05/31 02:40:19;;;;;;;2.75;1.98;;;8.50;74.40;;;;;;5033440;28;20436;-67
2021/05/31 02:42:53;;;;;;;3.10;1.75;;;8.50;74.70;;;;;;5039438;28;20026;-67
2021/05/31 02:45:22;;;;;;;5.22;2.17;;;8.50;74.90;;;;;;5037639;28;20078;-68
2021/05/31 02:47:48;;;;;;;2.90;2.08;;;8.40;75.20;;;;;;5038339;28;20376;-68
2021/05/31 02:50:14;;;;;;;4.97;1.90;;;8.40;75.40;;;;;;5041399;28;20029;-69
2021/05/31 02:52:42;;;;;;;2.78;1.60;;;8.30;75.60;;;;;;5041553;28;20026;-67
2021/05/31 02:55:28;;;;;;;1.92;1.73;;;8.30;75.90;;;;;;5037407;28;20033;-67
2021/05/31 02:57:54;;;;;;;1.95;1.70;;;8.30;76.00;;;;;;5042272;28;20049;-70
2021/05/31 03:00:23;;;;;;;2.92;1.90;;;8.20;76.60;;;;;;5040370;28;20466;-67
2021/05/31 03:02:49;;;;;;;3.42;1.67;;;8.20;76.80;;;;;;5035974;28;20032;-67
2021/05/31 03:05:19;;;;;;;4.30;2.15;;;8.20;77.10;;;;;;5039494;28;20237;-67
2021/05/31 03:07:45;;;;;;;3.50;1.80;;;8.10;77.70;;;;;;5039259;28;20082;-68
2021/05/31 03:10:12;;;;;;;2.40;1.70;;;8.10;77.80;;;;;;5037159;28;20029;-67
2021/05/31 03:12:38;;;;;;;5.05;1.98;;;8.10;77.90;;;;;;5038048;28;20040;-66
2021/05/31 03:15:06;;;;;;;2.40;1.75;;;8.10;78.30;;;;;;5039806;28;20036;-67
2021/05/31 03:17:32;;;;;;;2.83;1.63;;;8.00;78.30;;;;;;5040198;28;20025;-68
2021/05/31 03:19:57;;;;;;;2.90;2.10;;;8.00;78.60;;;;;;5041966;28;20544;-67
2021/05/31 03:22:23;;;;;;;3.80;1.75;;;8.00;79.00;;;;;;5038887;28;20053;-67
2021/05/31 03:24:49;;;;;;;3.03;2.05;;;8.00;79.50;;;;;;5041010;28;20021;-67
2021/05/31 03:27:15;;;;;;;3.20;1.70;;;8.00;79.30;;;;;;5041291;28;20181;-67
2021/05/31 03:29:41;;;;;;;3.47;1.70;;;8.00;79.30;;;;;;5044408;28;20036;-67
2021/05/31 03:32:07;;;;;;;4.57;2.25;;;8.00;79.50;;;;;;5043040;28;20501;-67
2021/05/31 03:34:32;;;;;;;5.43;2.30;;;8.00;79.80;;;;;;5042265;28;20104;-67
2021/05/31 03:36:58;;;;;;;3.88;2.40;;;8.00;79.70;;;;;;5043422;28;20104;-67
2021/05/31 03:39:24;;;;;;;4.00;1.77;;;8.00;79.90;;;;;;5043592;28;20028;-66
2021/05/31 03:41:49;;;;;;;4.43;1.92;;;8.00;79.90;;;;;;5042356;28;20040;-66
2021/05/31 03:44:15;;;;;;;4.43;2.25;;;8.00;79.90;;;;;;5042217;28;20025;-66
2021/05/31 03:46:41;;;;;;;3.78;2.05;;;8.00;80.20;;;;;;5041920;28;20429;-66
2021/05/31 03:49:07;;;;;;;2.40;1.90;;;8.00;80.10;;;;;;5042346;28;20087;-66
2021/05/31 03:51:33;;;;;;;3.55;2.05;;;8.00;80.50;;;;;;5041286;28;20485;-68
2021/05/31 03:53:58;;;;;;;3.17;2.08;;;8.00;80.50;;;;;;5043701;28;20030;-67
2021/05/31 03:56:24;;;;;;;3.03;2.20;;;8.00;80.70;;;;;;5042052;28;20029;-68
2021/05/31 03:58:52;;;;;;;4.13;2.38;;;8.00;81.20;;;;;;5043453;28;20052;-67
2021/05/31 04:01:17;;;;;;;8.38;3.10;;;8.00;81.30;;;;;;5041892;28;20029;-67
2021/05/31 04:03:44;;;;;;;5.15;2.33;;;8.10;81.30;;;;;;5043830;28;20549;-67
2021/05/31 04:06:23;;;;;;;3.88;2.22;;;8.10;81.40;;;;;;5042366;28;20478;-67
2021/05/31 04:11:39;;;;;;;4.32;2.50;;;8.20;81.50;;;;;;5041390;28;20414;-67
2021/05/31 04:14:07;;;;;;;3.83;1.80;;;8.30;81.30;;;;;;5040807;28;20033;-68
2021/05/31 04:16:35;;;;;;;4.18;2.60;;;8.30;81.00;;;;;;5041966;28;20128;-68
2021/05/31 04:19:02;;;;;;;6.25;2.72;;;8.40;81.10;;;;;;5042011;28;20047;-67
2021/05/31 04:21:28;;;;;;;3.95;2.38;;;8.40;81.20;;;;;;5045226;28;20029;-67
2021/05/31 04:23:54;;;;;;;3.63;2.35;;;8.50;80.90;;;;;;5042207;28;20046;-71
2021/05/31 04:26:19;;;;;;;3.65;2.03;;;8.60;81.00;;;;;;5041511;28;20181;-67
2021/05/31 04:28:45;;;;;;;5.47;2.83;;;8.60;80.90;;;;;;5040801;28;20041;-65
2021/05/31 04:31:11;;;;;;;2.50;2.28;;;8.70;81.00;;;;;;5042792;28;20021;-65
2021/05/31 04:33:37;;;;;;;4.60;2.42;;;8.70;80.80;;;;;;5041959;28;20080;-65
2021/05/31 04:36:03;;;;;;;4.75;2.20;;;8.80;80.90;;;;;;5039366;28;20051;-67
2021/05/31 04:38:29;;;;;;;6.00;2.22;;;8.90;81.00;;;;;;5042331;28;20037;-66
2021/05/31 04:40:55;;;;;;;3.47;2.20;;;8.90;81.00;;;;;;5043022;28;20029;-70
2021/05/31 04:43:20;;;;;;;3.10;2.30;;;9.00;81.00;;;;;;5041940;28;20033;-66
2021/05/31 04:45:46;;;;;;;3.90;2.63;;;9.10;80.80;;;;;;5041933;28;20493;-67
2021/05/31 04:48:12;;;;;;;3.22;2.42;;;9.10;80.60;;;;;;5041532;28;20033;-66
2021/05/31 04:50:38;;;;;;;4.78;2.40;;;9.20;80.40;;;;;;5039767;28;20037;-66
2021/05/31 04:53:03;;;;;;;2.85;2.50;;;9.30;80.10;;;;;;5042247;28;20036;-66
2021/05/31 04:55:29;;;;;;;3.72;2.45;;;9.40;79.60;;;;;;5042672;28;20025;-66
2021/05/31 04:57:55;;;;;;;3.33;2.53;;;9.50;79.40;;;;;;5040188;28;20049;-70
2021/05/31 05:00:21;;;;;;;3.92;2.50;;;9.60;79.30;;;;;;5022798;28;20041;-66
2021/05/31 05:02:47;;;;;;;5.57;3.50;;;9.70;79.20;;;;;;5043801;28;20456;-66
2021/05/31 05:05:14;;;;;;;3.42;2.60;;;9.80;79.00;;;;;;5035375;28;20035;-66
2021/05/31 05:07:46;;;;;;;4.57;2.45;;;9.90;78.60;;;;;;5041527;28;20038;-66
2021/05/31 05:10:14;;;;;;;3.28;2.30;;;9.90;77.90;;;;;;5048102;28;20036;-66
2021/05/31 05:12:42;;;;;;;4.85;2.92;;;10.10;77.40;;;;;;5039403;28;20048;-66
2021/05/31 05:15:08;;;;;;;4.90;2.53;;;10.20;76.30;;;;;;5047483;28;20418;-66
2021/05/31 05:17:33;;;;;;;3.00;2.20;;;10.30;75.70;;;;;;5051686;28;20029;-66
2021/05/31 05:19:59;;;;;;;3.25;2.85;;;10.50;76.10;;;;;;5049563;28;20116;-67
2021/05/31 05:22:25;;;;;;;4.30;3.10;;;10.60;76.00;;;;;;5051976;28;20078;-66
2021/05/31 05:24:50;;;;;;;3.63;2.63;;;10.70;75.60;;;;;;5034158;28;20490;-66
2021/05/31 05:27:16;;;;;;;3.22;2.45;;;10.90;75.20;;;;;;5031749;28;20029;-66
2021/05/31 05:29:41;;;;;;;4.32;2.83;;;11.00;74.70;;;;;;5045943;28;20036;-66
2021/05/31 05:32:07;;;;;;;5.72;2.33;;;11.10;72.00;;;;;;5033242;28;20060;-72
2021/05/31 05:34:33;;;;;;;4.93;2.90;;;11.30;71.40;;;;;;5033397;28;20025;-73
2021/05/31 05:37:06;;;;;;;5.70;2.92;;;11.50;71.10;;;;;;5031702;28;20152;-75
2021/05/31 05:47:45;;;;;;;7.97;3.90;;;12.30;69.30;;;;;;5038169;28;20124;-73
2021/05/31 05:50:15;;;;;;;8.48;3.70;;;12.60;67.30;;;;;;5049100;28;20079;-72
2021/05/31 05:52:41;;;;;;;6.10;3.60;;;12.70;68.10;;;;;;5049901;28;20049;-72
2021/05/31 05:55:08;;;;;;;7.68;4.03;;;13.00;65.80;;;;;;5050470;28;20029;-73
2021/05/31 05:57:34;;;;;;;5.95;3.78;;;13.10;65.90;;;;;;5032850;28;20028;-73
2021/05/31 06:00:03;;;;;;;7.68;3.88;;;13.10;65.20;;;;;;5031957;28;20447;-72
2021/05/31 06:02:29;;;;;;;9.52;3.80;;;13.20;65.00;;;;;;5032264;28;20026;-71
2021/05/31 06:04:55;;;;;;;10.43;3.80;;;13.30;64.50;;;;;;5033153;28;20108;-73
2021/05/31 06:07:20;;;;;;;12.77;4.20;;;13.30;64.20;;;;;;5041391;28;20107;-75
2021/05/31 06:09:46;;;;;;;9.05;3.95;;;13.30;65.10;;;;;;5050743;28;20394;-72
2021/05/31 06:12:12;;;;;;;7.20;4.57;;;13.30;64.40;;;;;;5031521;28;20065;-72
2021/05/31 06:14:37;;;;;;;8.23;4.60;;;13.30;63.90;;;;;;5014880;28;20029;-65
2021/05/31 06:17:03;;;;;;;9.88;4.35;;;13.30;63.90;;;;;;5038692;28;20029;-66
2021/05/31 06:19:30;;;;;;;10.75;4.35;;;13.30;63.20;;;;;;5040387;28;20032;-66
2021/05/31 06:21:55;;;;;;;7.10;3.60;;;13.40;63.10;;;;;;5031512;28;20330;-65
2021/05/31 06:24:21;;;;;;;8.23;3.85;;;13.50;62.60;;;;;;5043112;28;20025;-66
2021/05/31 06:26:47;;;;;;;7.40;3.53;;;13.60;64.10;;;;;;5032442;28;20051;-65
2021/05/31 06:29:12;;;;;;;8.95;3.78;;;13.60;63.60;;;;;;5046020;28;20045;-65
2021/05/31 06:31:38;;;;;;;7.15;3.90;;;13.80;62.20;;;;;;5033990;28;20034;-65
2021/05/31 06:34:04;;;;;;;3.72;3.08;;;13.90;61.60;;;;;;5035381;28;20030;-65
2021/05/31 06:36:31;;;;;;;6.55;3.15;;;14.00;61.10;;;;;;5046285;28;20025;-66
2021/05/31 06:38:57;;;;;;;7.25;2.90;;;14.10;61.40;;;;;;5042862;28;20398;-70
2021/05/31 06:41:22;;;;;;;5.95;3.15;;;14.20;61.20;;;;;;5030859;28;20034;-65
2021/05/31 06:43:48;;;;;;;6.32;3.00;;;14.20;60.90;;;;;;5022002;28;20032;-66
2021/05/31 06:46:14;;;;;;;7.88;2.90;;;14.30;60.60;;;;;;5048443;28;20036;-66
2021/05/31 06:48:40;;;;;;;3.92;2.67;;;14.40;60.90;;;;;;5045006;28;20065;-66
2021/05/31 06:51:07;;;;;;;5.00;2.90;;;14.40;60.40;;;;;;5030355;28;20489;-66
2021/05/31 06:53:33;;;;;;;3.60;2.63;;;14.70;59.90;;;;;;5041492;28;20122;-66
2021/05/31 06:55:59;;;;;;;6.85;2.92;;;14.80;59.50;;;;;;5044691;28;20026;-71
2021/05/31 06:58:25;;;;;;;5.72;2.83;;;14.90;58.80;;;;;;5045758;28;20060;-66
2021/05/31 07:00:50;;;;;;;3.88;2.60;;;14.90;58.60;;;;;;5025205;28;20036;-66
2021/05/31 07:03:16;;;;;;;10.15;2.58;;;15.00;58.50;;;;;;5046384;28;20021;-67
2021/05/31 07:05:42;;;;;;;4.55;2.58;;;15.10;57.10;;;;;;5046990;28;20032;-65
2021/05/31 07:08:07;;;;;;;3.25;2.30;;;15.20;58.10;;;;;;5024191;28;20040;-66
2021/05/31 07:10:33;;;;;;;5.07;2.20;;;15.20;57.80;;;;;;5035301;28;20041;-65
2021/05/31 07:13:01;;;;;;;5.15;2.08;;;15.30;57.10;;;;;;5048019;28;20059;-71
2021/05/31 07:15:27;;;;;;;4.20;1.77;;;15.50;56.40;;;;;;5046695;28;20099;-66
2021/05/31 07:17:53;;;;;;;3.47;1.85;;;15.70;55.30;;;;;;5035762;28;20454;-66
2021/05/31 07:20:20;;;;;;;5.35;1.83;;;15.80;55.10;;;;;;5034042;28;20026;-67
2021/05/31 07:22:46;;;;;;;3.28;1.63;;;15.90;53.20;;;;;;5049727;28;20086;-66
2021/05/31 07:25:15;;;;;;;2.45;1.75;;;16.00;53.50;;;;;;5048773;28;20036;-65
2021/05/31 07:27:42;;;;;;;3.63;1.83;;;16.00;53.60;;;;;;5041021;28;20374;-65
2021/05/31 07:30:08;;;;;;;2.67;1.70;;;16.10;50.60;;;;;;5033532;28;20407;-65
2021/05/31 07:32:36;;;;;;;6.80;1.90;;;16.20;51.70;;;;;;5034376;28;20061;-66
2021/05/31 07:35:07;;;;;;;5.90;2.17;;;16.30;51.40;;;;;;5044935;28;20362;-70
2021/05/31 07:37:33;;;;;;;;;;;16.40;51.40;;;;;;5034624;28;20467;-65
2021/05/31 07:39:59;;;;;;;2.72;1.60;;;16.50;49.40;;;;;;5038040;28;19909;-65
2021/05/31 07:42:25;;;;;;;3.00;1.95;;;16.60;48.00;;;;;;5050936;28;20374;-66
2021/05/31 07:44:50;;;;;;;5.72;1.85;;;16.60;47.30;;;;;;5052073;28;20025;-66
2021/05/31 07:47:16;;;;;;;1.75;1.45;;;16.60;48.90;;;;;;5044315;28;20029;-67
2021/05/31 07:49:41;;;;;;;2.85;1.90;;;16.80;50.80;;;;;;5035265;28;20243;-65
2021/05/31 07:52:20;;;;;;;3.08;1.60;;;16.90;49.10;;;;;;5047791;28;20387;-66
2021/05/31 07:54:47;;;;;;;1.83;1.60;;;16.90;49.10;;;;;;5046202;28;20082;-67
2021/05/31 07:57:13;;;;;;;4.38;2.17;;;16.90;49.70;;;;;;5042008;28;20052;-65
2021/05/31 07:59:38;;;;;;;1.98;1.45;;;17.10;48.50;;;;;;5038744;28;20080;-66
2021/05/31 08:02:04;;;;;;;3.65;1.80;;;17.10;49.20;;;;;;5035321;28;20033;-70
2021/05/31 08:04:29;;;;;;;2.53;1.60;;;17.30;48.90;;;;;;5037001;28;20025;-65
2021/05/31 08:06:59;;;;;;;4.53;1.50;;;17.40;47.10;;;;;;5040355;28;20462;-65
2021/05/31 08:09:24;;;;;;;1.83;1.70;;;17.20;46.60;;;;;;5044021;28;20072;-66
2021/05/31 08:11:50;;;;;;;4.30;1.90;;;17.20;47.60;;;;;;5049692;28;20053;-66
2021/05/31 08:14:16;;;;;;;2.40;1.60;;;17.30;47.60;;;;;;5032615;28;20026;-72
2021/05/31 08:16:41;;;;;;;5.10;1.70;;;17.40;46.40;;;;;;5052957;28;20082;-67
2021/05/31 08:19:07;;;;;;;4.03;1.75;;;17.50;46.10;;;;;;5044406;28;20037;-67
2021/05/31 08:21:33;;;;;;;3.13;1.67;;;17.60;46.40;;;;;;5037898;28;20029;-67
2021/05/31 08:23:58;;;;;;;1.45;1.35;;;17.80;45.30;;;;;;5036606;28;20022;-67
2021/05/31 08:26:24;;;;;;;2.42;1.63;;;17.90;45.10;;;;;;5018847;28;20113;-66
2021/05/31 08:28:50;;;;;;;1.98;1.60;;;17.90;45.00;;;;;;5042177;28;20397;-67
2021/05/31 08:31:16;;;;;;;2.85;1.75;;;17.90;45.30;;;;;;5048659;28;20070;-66
2021/05/31 08:33:42;;;;;;;2.30;1.75;;;18.00;46.50;;;;;;5051552;28;20117;-66
2021/05/31 08:36:08;;;;;;;3.15;1.67;;;18.00;45.00;;;;;;5051537;28;20378;-66
2021/05/31 08:38:34;;;;;;;1.35;1.25;;;18.00;43.70;;;;;;5041358;28;20034;-66
2021/05/31 08:41:01;;;;;;;2.40;1.58;;;18.00;44.50;;;;;;5033266;28;20518;-66
2021/05/31 08:43:27;;;;;;;4.88;1.75;;;17.90;43.50;;;;;;5033793;28;20026;-66
2021/05/31 08:45:54;;;;;;;5.38;1.48;;;17.90;44.00;;;;;;5041208;28;20048;-66
2021/05/31 08:48:22;;;;;;;3.97;1.70;;;17.90;44.20;;;;;;5038598;28;20033;-66
2021/05/31 08:50:48;;;;;;;3.20;1.55;;;18.00;43.40;;;;;;5032963;28;20545;-66
2021/05/31 08:53:14;;;;;;;1.65;1.45;;;18.10;42.90;;;;;;5033447;28;20061;-66
2021/05/31 08:55:40;;;;;;;2.55;2.00;;;18.10;42.70;;;;;;5045192;28;20370;-66
2021/05/31 08:58:06;;;;;;;5.22;1.58;;;18.10;42.50;;;;;;5035956;28;20057;-71
2021/05/31 09:00:35;;;;;;;1.75;1.55;;;18.10;43.40;;;;;;5033263;28;20048;-66
2021/05/31 09:03:10;;;;;;;4.22;1.58;;;18.10;43.50;;;;;;5033835;28;20516;-66
2021/05/31 09:05:42;;;;;;;4.97;1.92;;;18.30;44.10;;;;;;5048330;28;20025;-67
2021/05/31 09:08:14;;;;;;;4.03;1.50;;;18.40;43.60;;;;;;5045914;28;20029;-68
2021/05/31 09:10:53;;;;;;;1.77;1.33;;;18.50;43.80;;;;;;5052224;28;20021;-67
2021/05/31 09:13:34;;;;;;;4.32;2.00;;;18.60;44.40;;;;;;5040880;28;20029;-66
2021/05/31 09:16:21;;;;;;;2.97;1.63;;;18.80;43.40;;;;;;5033295;28;20371;-66
2021/05/31 09:18:50;;;;;;;5.60;1.42;;;18.70;43.00;;;;;;5045520;28;20043;-66
2021/05/31 09:21:15;;;;;;;7.53;1.95;;;18.70;44.50;;;;;;5031931;28;20036;-66
2021/05/31 09:23:41;;;;;;;2.78;1.77;;;18.70;43.10;;;;;;5051576;28;20025;-66
2021/05/31 09:26:07;;;;;;;5.28;1.70;;;18.70;43.00;;;;;;5040450;28;20025;-71
2021/05/31 09:28:33;;;;;;;4.72;1.75;;;18.80;42.50;;;;;;5032507;28;20045;-66
2021/05/31 09:31:00;;;;;;;3.97;1.95;;;18.80;42.20;;;;;;5045216;28;20386;-66
2021/05/31 09:33:25;;;;;;;3.85;1.83;;;18.80;42.10;;;;;;5033878;28;20103;-66
2021/05/31 09:35:51;;;;;;;26.73;2.78;;;18.90;42.80;;;;;;5050822;28;20449;-66
2021/05/31 09:38:18;;;;;;;2.78;1.92;;;19.00;42.30;;;;;;5050443;28;20037;-65
2021/05/31 09:41:20;;;;;;;3.47;1.73;;;19.00;42.30;;;;;;5022492;28;20025;-70
2021/05/31 09:43:52;;;;;;;3.33;1.40;;;19.10;42.50;;;;;;5044282;28;20120;-65
2021/05/31 09:46:17;;;;;;;8.68;2.40;;;19.10;42.70;;;;;;5031675;28;20415;-65
2021/05/31 09:48:43;;;;;;;4.13;2.03;;;19.20;41.40;;;;;;5031643;28;20064;-67
2021/05/31 09:51:13;;;;;;;4.00;1.50;;;19.40;42.70;;;;;;5014073;28;20032;-72
2021/05/31 09:53:39;;;;;;;;;;;19.40;42.90;;;;;;5032580;28;20455;-67
2021/05/31 09:56:15;;;;;;;3.00;2.05;;;19.60;42.30;;;;;;5050809;28;19967;-69
2021/05/31 09:58:51;;;;;;;3.35;1.90;;;19.70;41.00;;;;;;5050686;28;20041;-66
2021/05/31 10:01:36;;;;;;;3.10;1.73;;;19.60;41.30;;;;;;5030647;28;20060;-66
2021/05/31 10:04:22;;;;;;;5.18;2.20;;;19.60;41.40;;;;;;5033175;28;20079;-66
2021/05/31 10:06:59;;;;;;;2.03;1.52;;;19.70;41.20;;;;;;5037263;28;20112;-66
2021/05/31 10:09:26;;;;;;;3.28;1.70;;;19.60;42.00;;;;;;5049783;28;20893;-66
2021/05/31 10:11:53;;;;;;;5.95;1.50;;;19.60;41.00;;;;;;5046960;28;20037;-66
2021/05/31 10:14:19;;;;;;;2.58;1.95;;;19.50;41.60;;;;;;5031786;28;20037;-66
2021/05/31 10:16:46;;;;;;;1.90;1.70;;;19.60;41.00;;;;;;5050023;28;20029;-67
2021/05/31 10:19:12;;;;;;;10.43;1.58;;;19.70;41.20;;;;;;5037846;28;20052;-67
2021/05/31 10:21:38;;;;;;;4.82;1.60;;;19.80;41.80;;;;;;5042174;28;20021;-67
2021/05/31 10:24:04;;;;;;;2.78;1.92;;;20.00;41.30;;;;;;5050218;28;20029;-67
2021/05/31 10:26:32;;;;;;;3.85;1.60;;;20.20;38.80;;;;;;5050250;28;20079;-67
2021/05/31 10:29:00;;;;;;;2.25;1.73;;;20.30;39.50;;;;;;5045154;28;20437;-67
2021/05/31 10:31:27;;;;;;;2.20;1.70;;;20.40;39.00;;;;;;5033559;28;20029;-67
2021/05/31 10:34:00;;;;;;;2.78;1.65;;;20.60;39.40;;;;;;5034011;28;20037;-66
2021/05/31 10:36:34;;;;;;;4.38;1.65;;;20.80;40.30;;;;;;5049983;28;20592;-66
2021/05/31 10:39:05;;;;;;;6.47;2.00;;;21.00;39.40;;;;;;5049072;28;20037;-67
2021/05/31 10:41:31;;;;;;;2.47;1.50;;;21.10;39.40;;;;;;5046918;28;20029;-66
2021/05/31 10:43:58;;;;;;;2.22;2.03;;;21.20;39.90;;;;;;5036613;28;20184;-66
2021/05/31 10:46:35;;;;;;;3.63;1.92;;;21.20;39.20;;;;;;5049400;28;20037;-67
2021/05/31 10:49:04;;;;;;;3.38;2.10;;;21.00;39.60;;;;;;5049768;28;20040;-66
2021/05/31 10:51:35;;;;;;;4.15;1.73;;;20.90;39.70;;;;;;5047041;28;20091;-66
2021/05/31 10:54:18;;;;;;;7.60;1.80;;;20.80;38.60;;;;;;5039931;28;20112;-66
2021/05/31 10:56:47;;;;;;;2.60;1.60;;;20.90;40.50;;;;;;5031455;28;20048;-72
2021/05/31 10:59:19;;;;;;;3.75;1.73;;;21.00;39.60;;;;;;5038398;28;20084;-67
2021/05/31 11:01:45;;;;;;;2.10;1.63;;;21.00;39.40;;;;;;5036621;28;20052;-66
2021/05/31 11:04:21;;;;;;;2.47;1.73;;;21.10;39.90;;;;;;5029711;28;20467;-71
2021/05/31 11:06:49;;;;;;;3.58;1.85;;;21.40;39.40;;;;;;5036665;28;20022;-67
2021/05/31 11:09:21;;;;;;;4.40;1.77;;;21.60;38.90;;;;;;5036344;28;20043;-67
2021/05/31 11:11:50;;;;;;;2.58;1.55;;;21.80;38.30;;;;;;5046960;28;20044;-67
2021/05/31 11:14:31;;;;;;;2.47;1.85;;;22.00;38.50;;;;;;5047968;28;20032;-66
2021/05/31 11:17:02;;;;;;;3.83;1.88;;;22.20;37.30;;;;;;5041021;28;20040;-66
2021/05/31 11:19:39;;;;;;;4.28;1.90;;;22.20;37.40;;;;;;5031732;28;20038;-67
2021/05/31 11:22:23;;;;;;;6.47;1.70;;;22.10;37.50;;;;;;5049160;28;20743;-66
2021/05/31 11:24:59;;;;;;;1.98;1.40;;;22.10;37.50;;;;;;5050084;28;20021;-67
2021/05/31 11:27:26;;;;;;;10.80;1.88;;;22.20;36.80;;;;;;5038769;28;20028;-67
2021/05/31 11:29:52;;;;;;;2.03;1.80;;;22.20;38.30;;;;;;5037195;28;20041;-66
2021/05/31 11:32:19;;;;;;;2.58;1.40;;;22.30;37.60;;;;;;5049465;28;20040;-67
2021/05/31 11:34:56;;;;;;;4.07;1.60;;;22.40;37.60;;;;;;5038825;28;20022;-67
2021/05/31 11:37:26;;;;;;;4.07;2.20;;;22.50;37.00;;;;;;5038597;28;20041;-66
2021/05/31 11:39:53;;;;;;;3.17;1.60;;;22.50;35.40;;;;;;5039765;28;20059;-67
2021/05/31 11:42:19;;;;;;;2.80;1.75;;;22.50;36.10;;;;;;5029874;28;20360;-67
2021/05/31 11:45:12;;;;;;;6.40;2.00;;;22.60;36.80;;;;;;5030662;28;20026;-70
2021/05/31 11:47:37;;;;;;;3.20;1.50;;;22.70;35.60;;;;;;5029677;28;20037;-67
2021/05/31 11:50:03;;;;;;;2.05;1.48;;;22.90;35.50;;;;;;5049170;28;20069;-67
2021/05/31 11:52:29;;;;;;;3.05;1.85;;;23.00;36.00;;;;;;5052826;28;20039;-67
2021/05/31 11:54:56;;;;;;;3.90;1.67;;;23.10;35.30;;;;;;5053320;28;20120;-67
2021/05/31 11:57:25;;;;;;;2.17;1.65;;;23.10;36.20;;;;;;5038077;28;20034;-67
2021/05/31 11:59:53;;;;;;;2.80;1.38;;;23.10;36.50;;;;;;5051203;28;20037;-67
2021/05/31 12:02:23;;;;;;;1.50;1.40;;;23.10;36.20;;;;;;5041271;28;20532;-67
2021/05/31 12:04:50;;;;;;;2.03;1.60;;;23.30;35.90;;;;;;5033912;28;20112;-67
2021/05/31 12:07:22;;;;;;;3.42;1.90;;;23.60;35.50;;;;;;5041932;28;20137;-67
2021/05/31 12:09:49;;;;;;;2.33;1.40;;;23.80;35.30;;;;;;5052784;28;20056;-66
2021/05/31 12:12:20;;;;;;;2.85;1.90;;;23.80;35.00;;;;;;5050917;28;20084;-67
2021/05/31 12:14:56;;;;;;;1.83;1.42;;;23.90;34.50;;;;;;5053248;28;20120;-69
2021/05/31 12:17:29;;;;;;;3.03;1.85;;;24.00;35.20;;;;;;5029844;28;20036;-66
2021/05/31 12:19:56;;;;;;;3.35;1.90;;;23.80;34.40;;;;;;5016016;28;20355;-66
2021/05/31 12:22:30;;;;;;;1.90;1.70;;;23.60;34.20;;;;;;5032711;28;20037;-66
2021/05/31 12:24:59;;;;;;;1.85;1.50;;;23.80;35.90;;;;;;5033593;28;20026;-67
2021/05/31 12:27:33;;;;;;;4.22;1.40;;;23.80;34.30;;;;;;5042596;28;20033;-66
2021/05/31 12:30:00;;;;;;;2.40;1.30;;;24.00;33.40;;;;;;5037159;28;20033;-66
2021/05/31 12:32:28;;;;;;;3.55;1.48;;;24.20;30.90;;;;;;5033100;28;20109;-67
2021/05/31 12:34:55;;;;;;;1.50;1.40;;;24.30;31.40;;;;;;5037809;28;20040;-67
2021/05/31 12:37:34;;;;;;;1.45;1.35;;;24.30;32.60;;;;;;5043760;28;20107;-67
2021/05/31 12:40:07;;;;;;;4.78;1.40;;;24.30;29.90;;;;;;5053507;28;20048;-67
2021/05/31 12:42:34;;;;;;;2.35;1.50;;;24.40;30.40;;;;;;5054682;28;20520;-67
2021/05/31 12:45:10;;;;;;;1.60;1.50;;;24.70;31.20;;;;;;5037295;28;20037;-67
2021/05/31 12:47:41;;;;;;;2.65;1.85;;;24.70;32.10;;;;;;5046251;28;20420;-67
2021/05/31 12:50:22;;;;;;;4.32;2.03;;;24.80;31.40;;;;;;5052106;28;20025;-67
2021/05/31 12:52:48;;;;;;;6.55;1.52;;;25.10;32.20;;;;;;5051906;28;20025;-67
2021/05/31 12:55:24;;;;;;;3.28;1.15;;;25.40;31.50;;;;;;5036770;28;20041;-71
2021/05/31 12:57:50;;;;;;;2.45;1.63;;;25.60;32.40;;;;;;5041006;28;20065;-67
2021/05/31 13:00:21;;;;;;;1.60;1.50;;;25.90;29.70;;;;;;5046047;28;20065;-71
2021/05/31 13:02:59;;;;;;;1.65;1.50;;;26.00;30.00;;;;;;5041616;28;20067;-67
2021/05/31 13:05:28;;;;;;;1.52;1.42;;;26.30;30.10;;;;;;5041605;28;20087;-67
2021/05/31 13:07:56;;;;;;;2.25;1.70;;;26.30;30.00;;;;;;5040812;28;20033;-67